Aviation Digital Data Service (ADDS)

Output produced by METARs form (2221 UTC 24 July 2016)
found at http://aviationweather.gov/adds/metars/
 
KALB 241721Z 2418/2518 01005KT P6SM FEW050 BKN250 
     FM250000 VRB03KT P6SM SCT120 BKN250 
     FM251000 15004KT P6SM SCT050 BKN120 BKN250 
     FM251400 18006KT P6SM SCT050 BKN100 BKN200